KEWR/EWR METAR and TAF weather

Enter ICAO airport designator
Station Type Date Time Source
KEWR METAR 2021/05/13 17:51 UTC NOAA

KEWR 131751Z VRB03KT 10SM FEW090 22/M03 A3019 RMK AO2 SLP222 T02171028 10217 20150 56014


Station Type Date Time Source
KEWR Decoded METAR 2021/05/13 17:51 UTC NOAA

NEWARK INTERNATIONAL AIRPORT, NJ, United States (KEWR) 40-41N 74-10W 7M
May 13, 2021 - 01:51 PM EDT / 2021.05.13 1751 UTC
Wind: Variable at 3 MPH (3 KT):0
Visibility: 10 mile(s):0
Sky conditions: mostly clear
Temperature: 71.1 F (21.7 C)
Dew Point: 27.0 F (-2.8 C)
Relative Humidity: 19%
Pressure (altimeter): 30.19 in. Hg (1022 hPa)
Pressure tendency: 0.04 inches (1.4 hPa) lower than three hours ago
ob: KEWR 131751Z VRB03KT 10SM FEW090 22/M03 A3019 RMK AO2 SLP222 T02171028 10217 20150 56014
cycle: 18

Station Type Date Time Source
KEWR TAF 2021/05/13 18:36 UTC NOAA

TAF KEWR 131735Z 1318/1424 32008KT P6SM FEW250
FM132300 15006KT P6SM SCT070
FM140200 24005KT P6SM FEW070
FM140600 VRB05KT P6SM SCT250
FM141000 35005KT P6SM SKC
FM142100 21007KT P6SM FEW200

Example: see airport list